Time;durP1;ratioP1;P1;durP2;ratioP2;P2;SDS_P1;SDS_P2;PMS_P1;PMS_P2;Temp;Humidity;BMP_temperature;BMP_pressure;BME280_temperature;BME280_humidity;BME280_pressure;Samples;Min_cycle;Max_cycle;Signal;HPM_P1;HPM_P2
2022/12/18 00:01:45;;;;;;;21.55;14.82;;;;;;;;;;6263765;28;20716;-77
2022/12/18 00:04:47;;;;;;;24.58;15.13;;;;;;;;;;6264035;28;20052;-76
2022/12/18 00:07:50;;;;;;;22.30;15.27;;;;;;;;;;6261034;28;20053;-77
2022/12/18 00:10:52;;;;;;;21.98;14.95;;;;;;;;;;6265247;28;20106;-77
2022/12/18 00:13:55;;;;;;;21.48;14.90;;;;;;;;;;6262913;28;20122;-75
2022/12/18 00:16:58;;;;;;;26.15;17.52;;;;;;;;;;6265027;28;20108;-77
2022/12/18 00:19:59;;;;;;;21.88;16.13;;;;;;;;;;6263947;28;20112;-77
2022/12/18 00:23:02;;;;;;;21.45;15.48;;;;;;;;;;6261283;28;20228;-77
2022/12/18 00:26:06;;;;;;;25.20;15.85;;;;;;;;;;6264735;28;20091;-77
2022/12/18 00:29:11;;;;;;;23.90;15.82;;;;;;;;;;6264059;28;20060;-77
2022/12/18 00:32:12;;;;;;;23.48;17.55;;;;;;;;;;6263618;28;20056;-76
2022/12/18 00:35:14;;;;;;;24.15;16.98;;;;;;;;;;6263458;28;20045;-77
2022/12/18 00:38:17;;;;;;;23.48;16.75;;;;;;;;;;6265322;28;20057;-78
2022/12/18 00:42:55;;;;;;;24.67;16.63;;;;;;;;;;6265456;28;20065;-76
2022/12/18 00:44:51;;;;;;;26.27;17.50;;;;;;;;;;6262323;28;20247;-76
2022/12/18 00:47:53;;;;;;;26.85;17.30;;;;;;;;;;6262090;28;20116;-76
2022/12/18 00:50:55;;;;;;;25.05;16.52;;;;;;;;;;6260317;28;20060;-77
2022/12/18 00:53:58;;;;;;;22.92;17.45;;;;;;;;;;6262692;28;20048;-77
2022/12/18 00:57:00;;;;;;;25.13;17.02;;;;;;;;;;6263824;28;20057;-77
2022/12/18 01:00:01;;;;;;;24.55;17.02;;;;;;;;;;6264221;28;20056;-76
2022/12/18 01:03:04;;;;;;;24.15;16.42;;;;;;;;;;6261548;28;20061;-76
2022/12/18 01:06:07;;;;;;;25.40;17.23;;;;;;;;;;6260795;28;20222;-77
2022/12/18 01:09:10;;;;;;;24.77;16.33;;;;;;;;;;6262162;28;20075;-77
2022/12/18 01:12:12;;;;;;;23.70;16.98;;;;;;;;;;6264548;28;20052;-77
2022/12/18 01:15:14;;;;;;;29.85;18.33;;;;;;;;;;6267179;28;20055;-77
2022/12/18 01:18:16;;;;;;;24.88;17.50;;;;;;;;;;6264396;28;20137;-75
2022/12/18 01:21:18;;;;;;;31.48;20.52;;;;;;;;;;6267752;28;20078;-77
2022/12/18 01:24:21;;;;;;;29.20;19.00;;;;;;;;;;6266163;28;20130;-77
2022/12/18 01:27:22;;;;;;;33.65;19.67;;;;;;;;;;6266669;28;20065;-77
2022/12/18 01:30:24;;;;;;;34.83;20.88;;;;;;;;;;6270659;28;20053;-77
2022/12/18 01:33:26;;;;;;;43.05;23.27;;;;;;;;;;6272062;28;20064;-79
2022/12/18 01:36:29;;;;;;;37.65;21.13;;;;;;;;;;6272177;28;20041;-77
2022/12/18 01:39:33;;;;;;;40.30;21.63;;;;;;;;;;6268331;28;20122;-77
2022/12/18 01:42:34;;;;;;;46.58;24.02;;;;;;;;;;6266391;28;20277;-77
2022/12/18 01:45:36;;;;;;;71.70;37.47;;;;;;;;;;6270715;28;20057;-75
2022/12/18 01:48:39;;;;;;;69.45;34.40;;;;;;;;;;6268384;28;20332;-78
2022/12/18 01:51:40;;;;;;;55.88;27.83;;;;;;;;;;6267049;28;20061;-77
2022/12/18 01:54:44;;;;;;;44.90;22.83;;;;;;;;;;6268992;28;20232;-73
2022/12/18 01:57:46;;;;;;;84.27;39.60;;;;;;;;;;6265439;28;20056;-76
2022/12/18 02:00:47;;;;;;;50.08;25.48;;;;;;;;;;6267584;28;20376;-77
2022/12/18 02:03:49;;;;;;;50.60;25.02;;;;;;;;;;6264653;28;20049;-76
2022/12/18 02:06:55;;;;;;;47.53;24.42;;;;;;;;;;6268447;28;20052;-79
2022/12/18 02:10:01;;;;;;;53.00;26.65;;;;;;;;;;6264967;28;20911;-79
2022/12/18 02:13:08;;;;;;;54.47;28.05;;;;;;;;;;6269888;28;20064;-76
2022/12/18 02:16:14;;;;;;;51.08;26.52;;;;;;;;;;6264909;28;20076;-78
2022/12/18 02:19:28;;;;;;;49.92;26.13;;;;;;;;;;6266996;28;20053;-79
2022/12/18 02:22:40;;;;;;;49.20;26.45;;;;;;;;;;6266784;28;20055;-79
2022/12/18 02:26:02;;;;;;;48.88;24.80;;;;;;;;;;6267480;28;20061;-77
2022/12/18 02:29:07;;;;;;;48.10;25.25;;;;;;;;;;6266745;28;20131;-78
2022/12/18 02:32:11;;;;;;;45.42;23.85;;;;;;;;;;6265726;28;20049;-78
2022/12/18 02:35:16;;;;;;;52.92;27.33;;;;;;;;;;6264370;28;20063;-77
2022/12/18 02:38:18;;;;;;;51.22;26.10;;;;;;;;;;6267365;28;20059;-79
2022/12/18 02:41:22;;;;;;;52.22;27.13;;;;;;;;;;6267247;28;20044;-78
2022/12/18 02:44:24;;;;;;;;;;;;;;;;;;6262476;28;20248;-79
2022/12/18 02:47:30;;;;;;;50.05;26.63;;;;;;;;;;6264653;28;19917;-78
2022/12/18 02:50:36;;;;;;;51.67;26.60;;;;;;;;;;6266721;28;20225;-78
2022/12/18 02:53:43;;;;;;;52.42;27.52;;;;;;;;;;6265140;28;20057;-78
2022/12/18 02:56:50;;;;;;;58.55;28.15;;;;;;;;;;6267491;28;20103;-79
2022/12/18 02:59:58;;;;;;;48.45;25.83;;;;;;;;;;6265747;28;20048;-79
2022/12/18 03:03:03;;;;;;;47.60;26.25;;;;;;;;;;6264666;28;20244;-79
2022/12/18 03:06:09;;;;;;;48.25;26.08;;;;;;;;;;6263907;28;20059;-79
2022/12/18 03:09:15;;;;;;;48.50;26.15;;;;;;;;;;6267693;28;20064;-79
2022/12/18 03:12:25;;;;;;;47.63;25.58;;;;;;;;;;6266005;28;20053;-78
2022/12/18 03:15:29;;;;;;;48.33;25.23;;;;;;;;;;6263908;28;20053;-76
2022/12/18 03:18:31;;;;;;;;;;;;;;;;;;6266860;28;20044;-77
2022/12/18 03:21:35;;;;;;;46.90;25.67;;;;;;;;;;6265221;28;20220;-79
2022/12/18 03:24:39;;;;;;;51.47;25.17;;;;;;;;;;6268353;28;20056;-79
2022/12/18 03:27:47;;;;;;;57.23;27.17;;;;;;;;;;6264695;28;20053;-78
2022/12/18 03:30:52;;;;;;;53.22;27.27;;;;;;;;;;6267060;28;20628;-79
2022/12/18 03:33:55;;;;;;;48.22;26.92;;;;;;;;;;6263836;28;20053;-79
2022/12/18 03:36:57;;;;;;;50.72;27.02;;;;;;;;;;6261606;28;20056;-79
2022/12/18 03:39:59;;;;;;;52.85;27.08;;;;;;;;;;6264765;28;20353;-79
2022/12/18 03:43:05;;;;;;;49.03;25.20;;;;;;;;;;6262757;28;20045;-78
2022/12/18 03:46:09;;;;;;;51.78;26.35;;;;;;;;;;6264210;28;20298;-78
2022/12/18 03:49:15;;;;;;;45.15;24.50;;;;;;;;;;6265726;28;20049;-79
2022/12/18 03:52:19;;;;;;;49.50;26.55;;;;;;;;;;6263514;28;20057;-79
2022/12/18 03:55:23;;;;;;;50.65;26.60;;;;;;;;;;6266882;28;20344;-78
2022/12/18 03:58:26;;;;;;;50.30;24.60;;;;;;;;;;6262982;28;20053;-79
2022/12/18 04:01:35;;;;;;;50.03;27.90;;;;;;;;;;6263505;28;20328;-78
2022/12/18 04:04:38;;;;;;;49.78;25.88;;;;;;;;;;6266013;28;20146;-79
2022/12/18 04:07:41;;;;;;;50.13;27.08;;;;;;;;;;6261925;28;20375;-78
2022/12/18 04:10:42;;;;;;;49.00;26.10;;;;;;;;;;6263931;28;20057;-77
2022/12/18 04:13:45;;;;;;;55.60;27.77;;;;;;;;;;6260355;28;20061;-78
2022/12/18 04:16:47;;;;;;;53.20;28.00;;;;;;;;;;6262972;28;20505;-79
2022/12/18 04:19:49;;;;;;;56.97;27.70;;;;;;;;;;6266381;28;20057;-78
2022/12/18 04:22:51;;;;;;;55.05;26.25;;;;;;;;;;6261259;28;20057;-76
2022/12/18 04:25:52;;;;;;;52.72;27.45;;;;;;;;;;6265814;28;20048;-79
2022/12/18 04:28:55;;;;;;;53.75;27.42;;;;;;;;;;6263438;28;20094;-79
2022/12/18 04:31:57;;;;;;;54.55;27.52;;;;;;;;;;6264479;28;20057;-79
2022/12/18 04:34:59;;;;;;;50.90;26.95;;;;;;;;;;6264317;28;20057;-78
2022/12/18 04:38:00;;;;;;;56.95;28.08;;;;;;;;;;6265355;28;20053;-79
2022/12/18 04:41:02;;;;;;;56.08;26.75;;;;;;;;;;6264911;28;20309;-78
2022/12/18 04:44:05;;;;;;;59.75;28.38;;;;;;;;;;6265594;28;20111;-78
2022/12/18 04:47:07;;;;;;;57.93;27.83;;;;;;;;;;6264087;28;20206;-79
2022/12/18 04:50:09;;;;;;;60.42;29.10;;;;;;;;;;6263022;28;20144;-79
2022/12/18 04:53:11;;;;;;;69.10;29.70;;;;;;;;;;6263246;28;20103;-78
2022/12/18 04:56:14;;;;;;;63.03;28.63;;;;;;;;;;6261992;28;20127;-78
2022/12/18 04:59:17;;;;;;;76.55;30.73;;;;;;;;;;6261822;28;20115;-79
2022/12/18 05:02:18;;;;;;;82.80;33.40;;;;;;;;;;6265302;28;20236;-79
2022/12/18 05:05:20;;;;;;;68.03;29.35;;;;;;;;;;6265807;28;20052;-79
2022/12/18 05:08:22;;;;;;;76.22;32.17;;;;;;;;;;6264836;28;20057;-79
2022/12/18 05:11:24;;;;;;;74.40;30.42;;;;;;;;;;6262697;28;20091;-79
2022/12/18 05:14:27;;;;;;;77.00;32.67;;;;;;;;;;6259644;28;20359;-79
2022/12/18 05:17:29;;;;;;;87.70;31.95;;;;;;;;;;6260017;28;20073;-78
2022/12/18 05:20:30;;;;;;;88.25;32.45;;;;;;;;;;6262996;28;20095;-79
2022/12/18 05:23:35;;;;;;;83.30;32.25;;;;;;;;;;6264316;28;20298;-79
2022/12/18 05:26:37;;;;;;;82.68;32.00;;;;;;;;;;6261373;28;20081;-77
2022/12/18 05:29:40;;;;;;;74.53;30.77;;;;;;;;;;6263035;28;20329;-79
2022/12/18 05:32:42;;;;;;;85.43;31.83;;;;;;;;;;6262639;28;20049;-79
2022/12/18 05:35:44;;;;;;;75.57;29.52;;;;;;;;;;6262279;28;20126;-79
2022/12/18 05:38:45;;;;;;;79.47;30.88;;;;;;;;;;6265309;28;20340;-79
2022/12/18 05:41:47;;;;;;;72.97;29.52;;;;;;;;;;6259488;28;20059;-79
2022/12/18 05:44:50;;;;;;;72.10;31.27;;;;;;;;;;6264295;28;20053;-79
2022/12/18 05:47:52;;;;;;;69.15;29.27;;;;;;;;;;6263263;28;20046;-79
2022/12/18 05:50:54;;;;;;;71.93;27.77;;;;;;;;;;6261444;28;20324;-78
2022/12/18 05:53:55;;;;;;;69.95;29.73;;;;;;;;;;6261591;28;20057;-79
2022/12/18 05:56:57;;;;;;;74.65;29.88;;;;;;;;;;6263192;28;20100;-79
2022/12/18 06:00:00;;;;;;;67.18;29.02;;;;;;;;;;6266414;28;20053;-79
2022/12/18 06:03:02;;;;;;;75.20;31.08;;;;;;;;;;6265093;28;20509;-79
2022/12/18 06:06:05;;;;;;;70.55;29.63;;;;;;;;;;6266428;28;20565;-79
2022/12/18 06:09:09;;;;;;;69.65;28.25;;;;;;;;;;6267424;28;20052;-78
2022/12/18 06:12:10;;;;;;;71.35;28.48;;;;;;;;;;6264821;28;20349;-79
2022/12/18 06:15:13;;;;;;;67.35;29.33;;;;;;;;;;6265265;28;20107;-79
2022/12/18 06:18:15;;;;;;;68.40;28.98;;;;;;;;;;6266227;28;20103;-79
2022/12/18 06:21:17;;;;;;;68.68;29.98;;;;;;;;;;6265705;28;20107;-79
2022/12/18 06:24:18;;;;;;;65.93;28.65;;;;;;;;;;6265888;28;20056;-78
2022/12/18 06:27:20;;;;;;;62.97;28.42;;;;;;;;;;6267896;28;20355;-79
2022/12/18 06:30:23;;;;;;;65.40;28.33;;;;;;;;;;6265903;28;20336;-79
2022/12/18 06:33:27;;;;;;;61.60;29.08;;;;;;;;;;6266716;28;20114;-78
2022/12/18 06:36:29;;;;;;;65.78;28.55;;;;;;;;;;6269470;28;20060;-79
2022/12/18 06:39:30;;;;;;;63.40;28.73;;;;;;;;;;6266615;28;20052;-79
2022/12/18 06:42:32;;;;;;;66.25;29.02;;;;;;;;;;6265829;28;20328;-79
2022/12/18 06:45:35;;;;;;;65.82;28.15;;;;;;;;;;6265013;28;20110;-79
2022/12/18 06:48:37;;;;;;;69.65;30.05;;;;;;;;;;6266313;28;20103;-77
2022/12/18 06:51:39;;;;;;;68.18;29.50;;;;;;;;;;6264738;28;20102;-79
2022/12/18 06:54:41;;;;;;;64.38;28.33;;;;;;;;;;6268378;28;20044;-78
2022/12/18 06:57:42;;;;;;;68.80;29.25;;;;;;;;;;6263773;28;20049;-78
2022/12/18 07:00:45;;;;;;;69.10;30.30;;;;;;;;;;6266701;28;20068;-79
2022/12/18 07:03:47;;;;;;;68.68;28.17;;;;;;;;;;6265585;28;20052;-77
2022/12/18 07:06:49;;;;;;;69.30;29.88;;;;;;;;;;6264807;28;20041;-79
2022/12/18 07:09:50;;;;;;;71.50;29.70;;;;;;;;;;6263716;28;20053;-79
2022/12/18 07:12:52;;;;;;;75.68;31.13;;;;;;;;;;6264417;28;20094;-77
2022/12/18 07:15:55;;;;;;;74.53;31.00;;;;;;;;;;6265271;28;20065;-77
2022/12/18 07:18:57;;;;;;;73.80;30.17;;;;;;;;;;6264172;28;20214;-79
2022/12/18 07:21:58;;;;;;;68.32;29.52;;;;;;;;;;6261470;28;20060;-78
2022/12/18 07:25:00;;;;;;;77.50;30.77;;;;;;;;;;6266062;28;20366;-80
2022/12/18 07:28:02;;;;;;;72.70;29.33;;;;;;;;;;6261483;28;20053;-80
2022/12/18 07:31:05;;;;;;;68.97;28.45;;;;;;;;;;6263016;28;20046;-80
2022/12/18 07:34:11;;;;;;;77.43;31.80;;;;;;;;;;6263549;28;20103;-82
2022/12/18 07:37:12;;;;;;;72.43;29.02;;;;;;;;;;6267595;28;20099;-77
2022/12/18 07:40:14;;;;;;;79.90;29.85;;;;;;;;;;6261673;28;20131;-77
2022/12/18 07:43:16;;;;;;;79.88;30.70;;;;;;;;;;6263925;28;20130;-77
2022/12/18 07:46:19;;;;;;;79.82;30.85;;;;;;;;;;6264356;28;20060;-78
2022/12/18 07:49:21;;;;;;;81.13;30.50;;;;;;;;;;6265345;28;20056;-77
2022/12/18 07:52:22;;;;;;;79.55;30.48;;;;;;;;;;6264270;28;20359;-77
2022/12/18 07:55:24;;;;;;;80.22;30.08;;;;;;;;;;6265064;28;20053;-78
2022/12/18 07:58:26;;;;;;;72.03;30.05;;;;;;;;;;6263536;28;20050;-78
2022/12/18 08:01:29;;;;;;;73.95;29.33;;;;;;;;;;6264429;28;20221;-77
2022/12/18 08:04:30;;;;;;;78.25;30.83;;;;;;;;;;6258130;28;20095;-78
2022/12/18 08:07:32;;;;;;;65.63;26.67;;;;;;;;;;6264973;28;20045;-78
2022/12/18 08:10:34;;;;;;;69.53;28.40;;;;;;;;;;6263479;28;20359;-78
2022/12/18 08:13:35;;;;;;;61.88;27.02;;;;;;;;;;6260939;28;20063;-77
2022/12/18 08:16:39;;;;;;;69.32;27.38;;;;;;;;;;6265530;28;20059;-77
2022/12/18 08:19:40;;;;;;;73.73;27.87;;;;;;;;;;6263719;28;20055;-78
2022/12/18 08:22:42;;;;;;;68.68;26.92;;;;;;;;;;6260874;28;20903;-74
2022/12/18 08:25:44;;;;;;;70.95;28.77;;;;;;;;;;6263614;28;20378;-77
2022/12/18 08:28:46;;;;;;;70.30;28.75;;;;;;;;;;6264897;28;20071;-78
2022/12/18 08:31:49;;;;;;;63.70;27.30;;;;;;;;;;6263158;28;20045;-75
2022/12/18 08:34:51;;;;;;;70.32;28.60;;;;;;;;;;6263103;28;20095;-74
2022/12/18 08:37:53;;;;;;;62.47;27.58;;;;;;;;;;6264597;28;20060;-74
2022/12/18 08:40:59;;;;;;;63.53;27.52;;;;;;;;;;6259892;28;20233;-75
2022/12/18 08:47:21;;;;;;;58.03;28.58;;;;;;;;;;6263455;28;20276;-76
2022/12/18 08:50:23;;;;;;;53.47;25.83;;;;;;;;;;6258729;28;20107;-75
2022/12/18 08:53:26;;;;;;;54.70;24.13;;;;;;;;;;6261967;28;20226;-76
2022/12/18 08:56:29;;;;;;;52.10;25.43;;;;;;;;;;6263477;28;20052;-74
2022/12/18 08:59:31;;;;;;;49.00;24.80;;;;;;;;;;6262115;28;20265;-74
2022/12/18 09:02:34;;;;;;;58.85;26.17;;;;;;;;;;6262161;28;20045;-75
2022/12/18 09:05:36;;;;;;;53.25;26.15;;;;;;;;;;6261709;28;20052;-74
2022/12/18 09:08:37;;;;;;;52.10;25.00;;;;;;;;;;6260533;28;20055;-74
2022/12/18 09:11:39;;;;;;;55.30;26.00;;;;;;;;;;6261960;28;20064;-73
2022/12/18 09:14:41;;;;;;;50.00;23.65;;;;;;;;;;6264310;28;20045;-75
2022/12/18 09:17:44;;;;;;;60.88;25.77;;;;;;;;;;6260273;28;20059;-74
2022/12/18 09:20:46;;;;;;;50.88;24.77;;;;;;;;;;6261008;28;20097;-72
2022/12/18 09:23:51;;;;;;;45.80;23.02;;;;;;;;;;6264399;28;20061;-75
2022/12/18 09:26:54;;;;;;;49.22;25.23;;;;;;;;;;6262707;28;20040;-76
2022/12/18 09:29:56;;;;;;;48.45;23.92;;;;;;;;;;6266549;28;20674;-75
2022/12/18 09:32:59;;;;;;;49.95;25.40;;;;;;;;;;6267422;28;20057;-75
2022/12/18 09:36:02;;;;;;;48.78;24.75;;;;;;;;;;6270308;28;20347;-75
2022/12/18 09:39:04;;;;;;;44.43;23.87;;;;;;;;;;6270162;28;20063;-76
2022/12/18 09:42:06;;;;;;;47.97;24.33;;;;;;;;;;6270310;28;20075;-75
2022/12/18 09:45:14;;;;;;;50.13;24.55;;;;;;;;;;6271166;28;20287;-75
2022/12/18 09:48:20;;;;;;;42.65;23.50;;;;;;;;;;6261954;28;20041;-75
2022/12/18 09:51:25;;;;;;;50.33;24.73;;;;;;;;;;6270351;28;20351;-77
2022/12/18 09:54:30;;;;;;;46.47;24.02;;;;;;;;;;6274414;28;20052;-77
2022/12/18 09:57:34;;;;;;;45.55;23.75;;;;;;;;;;6272177;28;20059;-77
2022/12/18 10:00:36;;;;;;;51.83;25.25;;;;;;;;;;6269501;28;20044;-76
2022/12/18 10:03:39;;;;;;;49.90;24.95;;;;;;;;;;6271146;28;20057;-76
2022/12/18 10:06:44;;;;;;;46.08;24.23;;;;;;;;;;6268262;28;20386;-76
2022/12/18 10:09:51;;;;;;;47.45;23.10;;;;;;;;;;6263617;28;20053;-74
2022/12/18 10:13:01;;;;;;;42.05;23.35;;;;;;;;;;6264683;28;20201;-79
2022/12/18 10:16:14;;;;;;;45.00;23.00;;;;;;;;;;6262154;28;20049;-76
2022/12/18 10:19:29;;;;;;;47.87;24.67;;;;;;;;;;6265316;28;20065;-77
2022/12/18 10:22:35;;;;;;;;;;;;;;;;;;6266315;28;20328;-76
2022/12/18 10:25:43;;;;;;;44.03;24.08;;;;;;;;;;6263695;28;19924;-76
2022/12/18 10:28:44;;;;;;;43.60;23.42;;;;;;;;;;6265522;28;20096;-77
2022/12/18 10:31:46;;;;;;;44.42;23.60;;;;;;;;;;6264592;28;20061;-78
2022/12/18 10:34:50;;;;;;;50.50;25.08;;;;;;;;;;6267320;28;20049;-76
2022/12/18 10:38:06;;;;;;;;;;;;;;;;;;6267637;28;20045;-77
2022/12/18 10:41:26;;;;;;;45.15;24.45;;;;;;;;;;6267288;28;19921;-77
2022/12/18 10:44:28;;;;;;;47.03;23.25;;;;;;;;;;6264770;28;20037;-77
2022/12/18 10:47:29;;;;;;;48.95;25.40;;;;;;;;;;6265198;28;20368;-77
2022/12/18 10:50:34;;;;;;;43.30;23.83;;;;;;;;;;6266003;28;20071;-77
2022/12/18 10:53:37;;;;;;;49.47;25.52;;;;;;;;;;6266929;28;20099;-76
2022/12/18 10:56:39;;;;;;;47.20;23.88;;;;;;;;;;6265320;28;20115;-76
2022/12/18 10:59:52;;;;;;;44.90;24.17;;;;;;;;;;6265128;28;20075;-75
2022/12/18 11:02:53;;;;;;;44.92;24.92;;;;;;;;;;6264374;28;20045;-76
2022/12/18 11:06:05;;;;;;;51.40;25.88;;;;;;;;;;6266403;28;20110;-77
2022/12/18 11:09:20;;;;;;;50.45;26.60;;;;;;;;;;6261161;28;20285;-76
2022/12/18 11:12:23;;;;;;;47.83;24.83;;;;;;;;;;6264205;28;20049;-77
2022/12/18 11:15:29;;;;;;;48.10;24.33;;;;;;;;;;6264688;28;20095;-77
2022/12/18 11:18:33;;;;;;;41.30;24.08;;;;;;;;;;6262870;28;20336;-76
2022/12/18 11:21:41;;;;;;;46.47;24.00;;;;;;;;;;6263003;28;20387;-77
2022/12/18 11:24:43;;;;;;;41.15;24.45;;;;;;;;;;6263245;28;20288;-77
2022/12/18 11:27:49;;;;;;;42.78;23.75;;;;;;;;;;6262775;28;20364;-77
2022/12/18 11:31:11;;;;;;;40.63;23.08;;;;;;;;;;6267667;28;20054;-76
2022/12/18 11:34:15;;;;;;;41.47;23.60;;;;;;;;;;6263142;28;20107;-76
2022/12/18 11:37:19;;;;;;;38.22;22.20;;;;;;;;;;6262837;28;20045;-76
2022/12/18 11:40:27;;;;;;;36.83;22.90;;;;;;;;;;6265077;28;20102;-76
2022/12/18 11:43:32;;;;;;;34.95;20.52;;;;;;;;;;6264319;28;20049;-76
2022/12/18 11:46:37;;;;;;;30.77;20.20;;;;;;;;;;6263841;28;20057;-76
2022/12/18 11:49:42;;;;;;;30.27;19.40;;;;;;;;;;6265040;28;20049;-76
2022/12/18 11:52:45;;;;;;;30.42;19.45;;;;;;;;;;6261398;28;20045;-74
2022/12/18 11:56:07;;;;;;;29.30;19.30;;;;;;;;;;6260882;28;20265;-76
2022/12/18 11:59:16;;;;;;;30.25;19.42;;;;;;;;;;6262841;28;20048;-76
2022/12/18 12:02:34;;;;;;;27.15;17.25;;;;;;;;;;6262367;28;20052;-77
2022/12/18 12:05:49;;;;;;;27.77;17.90;;;;;;;;;;6264198;28;20112;-76
2022/12/18 12:09:01;;;;;;;22.17;15.43;;;;;;;;;;6265371;28;20279;-76
2022/12/18 12:12:14;;;;;;;26.73;17.25;;;;;;;;;;6263715;28;20067;-76
2022/12/18 12:15:24;;;;;;;23.83;15.27;;;;;;;;;;6263868;28;20272;-78
2022/12/18 12:18:32;;;;;;;28.30;16.83;;;;;;;;;;6263954;28;20086;-76
2022/12/18 12:21:37;;;;;;;24.73;16.08;;;;;;;;;;6260593;28;20062;-74
2022/12/18 12:24:51;;;;;;;24.63;16.30;;;;;;;;;;6266863;28;20094;-75
2022/12/18 12:28:01;;;;;;;24.85;16.08;;;;;;;;;;6267122;28;20045;-76
2022/12/18 12:31:08;;;;;;;27.05;17.35;;;;;;;;;;6270181;28;20221;-75
2022/12/18 12:34:16;;;;;;;27.75;17.95;;;;;;;;;;6265265;28;20041;-76
2022/12/18 12:37:26;;;;;;;24.92;17.00;;;;;;;;;;6271564;28;20053;-78
2022/12/18 12:40:32;;;;;;;31.08;17.45;;;;;;;;;;6266925;28;20055;-75
2022/12/18 12:43:37;;;;;;;26.58;17.75;;;;;;;;;;6270648;28;20111;-74
2022/12/18 12:46:41;;;;;;;28.13;18.00;;;;;;;;;;6269102;28;20131;-76
2022/12/18 12:49:47;;;;;;;26.90;17.27;;;;;;;;;;6265401;28;20063;-74
2022/12/18 12:52:53;;;;;;;27.15;18.13;;;;;;;;;;6265433;28;20275;-72
2022/12/18 12:55:56;;;;;;;31.52;20.58;;;;;;;;;;6270970;28;20045;-75
2022/12/18 12:59:05;;;;;;;36.58;20.00;;;;;;;;;;6269913;28;20111;-73
2022/12/18 13:02:15;;;;;;;30.70;18.33;;;;;;;;;;6268780;28;20120;-73
2022/12/18 13:05:20;;;;;;;31.48;18.80;;;;;;;;;;6269196;28;20054;-76
2022/12/18 13:08:26;;;;;;;31.80;19.65;;;;;;;;;;6274220;28;20049;-77
2022/12/18 13:15:13;;;;;;;36.15;22.48;;;;;;;;;;6273617;28;20220;-75
2022/12/18 13:18:17;;;;;;;39.63;24.27;;;;;;;;;;6269933;28;21069;-72
2022/12/18 13:21:23;;;;;;;36.65;23.98;;;;;;;;;;6272885;28;20064;-74
2022/12/18 13:24:27;;;;;;;39.03;23.40;;;;;;;;;;6268338;28;20112;-74
2022/12/18 13:27:58;;;;;;;40.85;23.98;;;;;;;;;;6274088;28;20237;-74
2022/12/18 13:31:00;;;;;;;42.97;25.08;;;;;;;;;;6271612;28;20287;-74
2022/12/18 13:34:16;;;;;;;42.05;25.33;;;;;;;;;;6271213;28;20053;-74
2022/12/18 13:37:46;;;;;;;40.38;24.70;;;;;;;;;;6273348;28;20068;-74
2022/12/18 13:41:02;;;;;;;39.72;25.35;;;;;;;;;;6269653;28;20053;-74
2022/12/18 13:44:13;;;;;;;46.80;26.85;;;;;;;;;;6273523;28;20116;-74
2022/12/18 13:47:27;;;;;;;48.22;27.25;;;;;;;;;;6273614;28;20060;-74
2022/12/18 13:50:29;;;;;;;41.10;25.77;;;;;;;;;;6265269;28;20332;-74
2022/12/18 13:53:34;;;;;;;45.70;27.92;;;;;;;;;;6267989;28;20059;-74
2022/12/18 13:56:45;;;;;;;43.97;26.08;;;;;;;;;;6260585;28;20189;-74
2022/12/18 13:59:48;;;;;;;42.78;26.70;;;;;;;;;;6266417;28;20053;-74
2022/12/18 14:02:50;;;;;;;43.75;27.27;;;;;;;;;;6269393;28;20064;-75
2022/12/18 14:05:58;;;;;;;43.13;25.48;;;;;;;;;;6268212;28;20052;-74
2022/12/18 14:08:59;;;;;;;40.28;25.58;;;;;;;;;;6267581;28;20059;-75
2022/12/18 14:15:28;;;;;;;37.85;24.85;;;;;;;;;;6265394;28;20252;-74
2022/12/18 14:18:35;;;;;;;39.60;25.35;;;;;;;;;;6266063;28;20132;-74
2022/12/18 14:21:38;;;;;;;43.63;26.35;;;;;;;;;;6266140;28;20115;-75
2022/12/18 14:24:40;;;;;;;42.45;25.50;;;;;;;;;;6268475;28;20056;-73
2022/12/18 14:27:43;;;;;;;40.13;25.83;;;;;;;;;;6265396;28;20344;-75
2022/12/18 14:30:47;;;;;;;40.87;25.77;;;;;;;;;;6266267;28;20075;-76
2022/12/18 14:33:49;;;;;;;42.47;26.60;;;;;;;;;;6266662;28;20045;-76
2022/12/18 14:36:53;;;;;;;47.63;26.85;;;;;;;;;;6265190;28;20052;-75
2022/12/18 14:39:57;;;;;;;43.78;26.80;;;;;;;;;;6267222;28;20340;-76
2022/12/18 14:42:59;;;;;;;41.47;26.42;;;;;;;;;;6265813;28;20059;-75
2022/12/18 14:46:02;;;;;;;37.05;24.20;;;;;;;;;;6266607;28;20087;-75
2022/12/18 14:49:06;;;;;;;38.63;23.95;;;;;;;;;;6268422;28;20045;-76
2022/12/18 14:52:27;;;;;;;43.30;25.02;;;;;;;;;;6264762;28;20049;-78
2022/12/18 14:55:29;;;;;;;38.03;24.02;;;;;;;;;;6265304;28;20110;-76
2022/12/18 14:58:31;;;;;;;40.33;24.48;;;;;;;;;;6265884;28;20100;-78
2022/12/18 15:01:36;;;;;;;42.63;25.90;;;;;;;;;;6267141;28;20065;-76
2022/12/18 15:04:39;;;;;;;42.67;25.10;;;;;;;;;;6267260;28;20080;-73
2022/12/18 15:07:42;;;;;;;44.58;27.65;;;;;;;;;;6265331;28;20120;-73
2022/12/18 15:10:48;;;;;;;46.55;29.05;;;;;;;;;;6265178;28;20348;-74
2022/12/18 15:13:50;;;;;;;40.10;24.85;;;;;;;;;;6265677;28;20057;-79
2022/12/18 15:16:54;;;;;;;41.78;25.00;;;;;;;;;;6264216;28;20049;-75
2022/12/18 15:19:59;;;;;;;;;;;;;;;;;;6267090;28;20041;-77
2022/12/18 15:23:01;;;;;;;43.22;25.60;;;;;;;;;;6265216;28;19935;-76
2022/12/18 15:26:04;;;;;;;38.83;23.50;;;;;;;;;;6266861;28;20513;-75
2022/12/18 15:29:06;;;;;;;38.60;22.58;;;;;;;;;;6273394;28;20049;-77
2022/12/18 15:32:21;;;;;;;39.08;24.27;;;;;;;;;;6270185;28;20041;-76
2022/12/18 15:35:24;;;;;;;36.00;22.55;;;;;;;;;;6269465;28;20044;-77
2022/12/18 15:38:26;;;;;;;44.05;25.02;;;;;;;;;;6269334;28;20317;-76
2022/12/18 15:41:28;;;;;;;39.95;23.60;;;;;;;;;;6269816;28;20049;-76
2022/12/18 15:44:30;;;;;;;45.28;25.52;;;;;;;;;;6271857;28;20271;-77
2022/12/18 15:47:34;;;;;;;47.00;27.20;;;;;;;;;;6267960;28;20095;-76
2022/12/18 15:50:35;;;;;;;45.13;24.77;;;;;;;;;;6266182;28;20060;-77
2022/12/18 15:53:37;;;;;;;48.63;28.17;;;;;;;;;;6265216;28;20071;-78
2022/12/18 15:59:58;;;;;;;51.13;28.48;;;;;;;;;;6262794;28;20057;-75
2022/12/18 16:03:04;;;;;;;44.50;27.30;;;;;;;;;;6268029;28;20103;-78
2022/12/18 16:06:07;;;;;;;44.40;25.58;;;;;;;;;;6265584;28;20087;-76
2022/12/18 16:09:09;;;;;;;47.28;28.25;;;;;;;;;;6265502;28;20049;-79
2022/12/18 16:12:17;;;;;;;51.85;29.30;;;;;;;;;;6262818;28;20572;-80
2022/12/18 16:15:19;;;;;;;47.53;27.67;;;;;;;;;;6264629;28;20045;-79
2022/12/18 16:18:22;;;;;;;42.90;24.33;;;;;;;;;;6243056;28;20605;-76
2022/12/18 16:21:24;;;;;;;39.58;24.25;;;;;;;;;;6244165;28;20121;-79
2022/12/18 16:24:28;;;;;;;40.15;24.38;;;;;;;;;;6257137;28;20224;-79
2022/12/18 16:27:29;;;;;;;;;;;;;;;;;;6258067;28;20053;-78
2022/12/18 16:30:33;;;;;;;38.05;22.92;;;;;;;;;;6265179;28;20136;-79
2022/12/18 16:33:36;;;;;;;42.27;24.60;;;;;;;;;;6265342;28;20067;-79
2022/12/18 16:36:37;;;;;;;42.58;24.55;;;;;;;;;;6263550;28;20049;-79
2022/12/18 16:39:40;;;;;;;43.17;25.10;;;;;;;;;;6264608;28;20084;-78
2022/12/18 16:42:43;;;;;;;45.85;26.92;;;;;;;;;;6268477;28;20057;-79
2022/12/18 16:45:44;;;;;;;43.45;25.27;;;;;;;;;;6257507;28;20356;-75
2022/12/18 16:48:50;;;;;;;43.40;26.20;;;;;;;;;;6265236;28;20053;-78
2022/12/18 16:51:52;;;;;;;42.55;26.50;;;;;;;;;;6264649;28;20128;-79
2022/12/18 16:54:54;;;;;;;45.55;26.17;;;;;;;;;;6266301;28;20049;-79
2022/12/18 16:57:55;;;;;;;41.60;25.63;;;;;;;;;;6269998;28;20105;-79
2022/12/18 17:00:57;;;;;;;46.88;28.27;;;;;;;;;;6271039;28;20053;-75
2022/12/18 17:04:01;;;;;;;46.25;26.95;;;;;;;;;;6263581;28;20084;-77
2022/12/18 17:07:05;;;;;;;;;;;;;;;;;;6261183;28;20276;-74
2022/12/18 17:10:07;;;;;;;41.03;23.88;;;;;;;;;;6263030;28;20036;-78
2022/12/18 17:13:09;;;;;;;44.63;25.17;;;;;;;;;;6267014;28;20059;-79
2022/12/18 17:16:11;;;;;;;47.45;26.33;;;;;;;;;;6261716;28;20105;-77
2022/12/18 17:19:15;;;;;;;40.20;25.17;;;;;;;;;;6265311;28;20143;-76
2022/12/18 17:22:17;;;;;;;40.65;25.90;;;;;;;;;;6266131;28;20049;-76
2022/12/18 17:25:21;;;;;;;46.80;26.77;;;;;;;;;;6264428;28;20058;-77
2022/12/18 17:28:24;;;;;;;;;;;;;;;;;;6265143;28;20067;-76
2022/12/18 17:31:28;;;;;;;43.97;25.17;;;;;;;;;;6263488;28;20232;-77
2022/12/18 17:34:31;;;;;;;45.42;25.58;;;;;;;;;;6261777;28;20091;-74
2022/12/18 17:37:33;;;;;;;50.33;28.38;;;;;;;;;;6264492;28;20041;-78
2022/12/18 17:40:35;;;;;;;47.47;27.27;;;;;;;;;;6264145;28;20363;-75
2022/12/18 17:43:44;;;;;;;49.13;27.85;;;;;;;;;;6264466;28;20053;-77
2022/12/18 17:46:46;;;;;;;46.92;26.95;;;;;;;;;;6266743;28;20060;-75
2022/12/18 17:49:50;;;;;;;45.17;27.00;;;;;;;;;;6264424;28;20049;-77
2022/12/18 17:52:55;;;;;;;45.63;27.98;;;;;;;;;;6267417;28;20068;-72
2022/12/18 17:56:00;;;;;;;49.08;27.73;;;;;;;;;;6268487;28;20049;-74
2022/12/18 17:59:02;;;;;;;48.17;27.83;;;;;;;;;;6270824;28;20120;-73
2022/12/18 18:02:05;;;;;;;47.70;27.95;;;;;;;;;;6269199;28;20067;-74
2022/12/18 18:05:08;;;;;;;47.83;28.38;;;;;;;;;;6266818;28;20056;-74
2022/12/18 18:08:10;;;;;;;46.80;29.52;;;;;;;;;;6265005;28;20275;-74
2022/12/18 18:14:29;;;;;;;47.83;28.08;;;;;;;;;;6236254;28;20083;-72